Time;durP1;ratioP1;P1;durP2;ratioP2;P2;SDS_P1;SDS_P2;PMS_P1;PMS_P2;Temp;Humidity;BMP_temperature;BMP_pressure;BME280_temperature;BME280_humidity;BME280_pressure;Samples;Min_cycle;Max_cycle;Signal;HPM_P1;HPM_P2
2021/12/02 00:01:12;;;;;;;7.33;3.13;;;3.20;99.90;;;;;;5092211;28;20267;-56
2021/12/02 00:03:38;;;;;;;6.27;2.80;;;3.30;99.90;;;;;;5074113;28;20635;-56
2021/12/02 00:06:08;;;;;;;8.47;3.60;;;3.30;99.90;;;;;;5091913;28;20609;-56
2021/12/02 00:08:34;;;;;;;9.33;3.77;;;3.30;99.90;;;;;;5091886;28;20173;-56
2021/12/02 00:11:00;;;;;;;6.43;3.33;;;3.20;99.90;;;;;;5091649;28;20761;-56
2021/12/02 00:13:28;;;;;;;5.97;2.87;;;3.20;99.90;;;;;;5074094;28;20226;-56
2021/12/02 00:16:04;;;;;;;7.07;3.37;;;3.20;99.90;;;;;;5091537;28;20632;-56
2021/12/02 00:21:25;;;;;;;8.63;3.43;;;3.10;99.90;;;;;;5091830;28;20238;-57
2021/12/02 00:24:08;;;;;;;8.57;3.73;;;3.10;99.90;;;;;;5091508;28;20176;-58
2021/12/02 00:26:38;;;;;;;7.23;3.30;;;3.10;99.90;;;;;;5092098;28;20217;-54
2021/12/02 00:29:07;;;;;;;8.47;3.50;;;3.10;99.90;;;;;;5091486;28;20181;-59
2021/12/02 00:31:36;;;;;;;10.33;4.10;;;3.10;99.90;;;;;;5091785;28;20694;-55
2021/12/02 00:34:07;;;;;;;6.10;3.17;;;3.10;99.90;;;;;;5091269;28;21060;-55
2021/12/02 00:36:35;;;;;;;7.87;3.37;;;3.20;99.90;;;;;;5091431;28;20177;-58
2021/12/02 00:39:08;;;;;;;5.77;2.80;;;3.10;99.90;;;;;;5091538;28;20550;-55
2021/12/02 00:41:34;;;;;;;5.27;2.90;;;3.10;99.90;;;;;;5091806;28;20188;-56
2021/12/02 00:44:00;;;;;;;6.73;3.00;;;3.10;99.90;;;;;;5091285;28;20218;-58
2021/12/02 00:46:30;;;;;;;6.87;3.10;;;3.10;99.90;;;;;;5091803;28;20189;-58
2021/12/02 00:48:57;;;;;;;6.47;2.83;;;3.10;99.90;;;;;;5091285;28;20539;-58
2021/12/02 00:51:26;;;;;;;6.37;3.03;;;3.10;99.90;;;;;;5092049;28;20177;-56
2021/12/02 00:53:53;;;;;;;6.07;2.50;;;3.10;99.90;;;;;;5091288;28;20317;-59
2021/12/02 00:56:25;;;;;;;9.57;3.30;;;3.10;99.90;;;;;;5091622;28;20177;-58
2021/12/02 00:58:52;;;;;;;5.90;2.60;;;3.20;99.90;;;;;;5091287;28;20405;-58
2021/12/02 01:01:20;;;;;;;5.73;2.73;;;3.20;99.90;;;;;;5091613;28;20185;-55
2021/12/02 01:03:49;;;;;;;6.80;2.93;;;3.30;99.90;;;;;;5073174;28;20261;-58
2021/12/02 01:06:15;;;;;;;7.77;2.80;;;3.30;99.90;;;;;;5091536;28;20173;-58
2021/12/02 01:08:41;;;;;;;4.17;2.60;;;3.30;99.90;;;;;;5091520;28;20181;-58
2021/12/02 01:11:08;;;;;;;6.90;2.73;;;3.20;99.90;;;;;;5090639;28;20275;-57
2021/12/02 01:13:34;;;;;;;6.30;2.90;;;3.20;99.90;;;;;;5091437;28;20668;-59
2021/12/02 01:16:00;;;;;;;5.30;2.40;;;3.30;99.90;;;;;;5091180;28;20192;-58
2021/12/02 01:18:26;;;;;;;6.53;3.00;;;3.50;99.90;;;;;;5091619;28;20589;-58
2021/12/02 01:20:53;;;;;;;6.13;2.27;;;3.60;99.90;;;;;;5091160;28;20173;-57
2021/12/02 01:23:21;;;;;;;5.40;2.90;;;3.60;99.90;;;;;;5091549;28;20252;-57
2021/12/02 01:25:53;;;;;;;5.20;2.27;;;3.70;99.90;;;;;;5090785;28;20180;-58
2021/12/02 01:28:21;;;;;;;4.37;2.27;;;3.80;99.90;;;;;;5091443;28;20633;-57
2021/12/02 01:30:47;;;;;;;6.10;2.23;;;3.80;99.90;;;;;;5091096;28;20271;-58
2021/12/02 01:33:15;;;;;;;6.20;2.50;;;3.80;99.90;;;;;;5056675;28;20581;-55
2021/12/02 01:35:46;;;;;;;6.17;2.80;;;3.90;99.90;;;;;;5091416;28;20203;-57
2021/12/02 01:38:12;;;;;;;4.87;2.53;;;3.90;99.90;;;;;;5073165;28;20186;-56
2021/12/02 01:40:38;;;;;;;6.73;2.60;;;3.90;99.90;;;;;;5090794;28;20185;-56
2021/12/02 01:43:06;;;;;;;5.27;2.37;;;3.80;99.90;;;;;;5091144;28;20217;-56
2021/12/02 01:45:33;;;;;;;6.17;2.33;;;3.80;99.90;;;;;;5090987;28;20637;-57
2021/12/02 01:48:02;;;;;;;3.70;2.10;;;3.80;99.90;;;;;;5091071;28;20173;-56
2021/12/02 01:50:28;;;;;;;5.07;2.40;;;3.80;99.90;;;;;;5094708;28;20264;-58
2021/12/02 01:52:56;;;;;;;7.93;2.60;;;3.80;99.90;;;;;;5094428;28;20589;-56
2021/12/02 01:55:23;;;;;;;4.53;2.37;;;4.00;99.90;;;;;;5094591;28;20178;-55
2021/12/02 01:58:05;;;;;;;3.83;2.20;;;4.00;99.90;;;;;;5092849;28;20645;-58
2021/12/02 02:00:44;;;;;;;3.73;1.63;;;4.00;99.90;;;;;;5075684;28;20229;-59
2021/12/02 02:03:12;;;;;;;8.00;2.33;;;4.00;99.90;;;;;;5093181;28;20192;-57
2021/12/02 02:05:38;;;;;;;5.80;1.83;;;3.90;99.90;;;;;;5093710;28;20216;-56
2021/12/02 02:08:21;;;;;;;5.83;2.00;;;3.90;99.90;;;;;;5094494;28;20188;-58
2021/12/02 02:10:47;;;;;;;5.43;2.00;;;4.00;99.90;;;;;;5094384;28;20178;-56
2021/12/02 02:13:15;;;;;;;7.17;2.20;;;4.00;99.90;;;;;;5094294;28;20549;-58
2021/12/02 02:15:45;;;;;;;5.23;2.10;;;4.00;99.90;;;;;;5094165;28;20189;-58
2021/12/02 02:21:02;;;;;;;3.83;1.83;;;3.90;99.90;;;;;;5094480;28;20177;-56
2021/12/02 02:23:35;;;;;;;4.77;2.03;;;3.90;99.90;;;;;;5094676;28;20243;-58
2021/12/02 02:26:01;;;;;;;6.07;2.23;;;3.90;99.90;;;;;;5093771;28;20185;-56
2021/12/02 02:28:28;;;;;;;3.67;1.90;;;4.10;99.90;;;;;;5094011;28;20266;-57
2021/12/02 02:30:54;;;;;;;3.73;1.80;;;4.20;99.90;;;;;;5093677;28;20542;-57
2021/12/02 02:33:21;;;;;;;4.37;2.10;;;4.30;99.90;;;;;;5094064;28;20214;-57
2021/12/02 02:35:47;;;;;;;5.30;1.80;;;4.40;99.90;;;;;;5093848;28;20187;-56
2021/12/02 02:38:16;;;;;;;3.97;2.30;;;4.50;99.90;;;;;;5093619;28;20576;-56
2021/12/02 02:40:46;;;;;;;2.77;1.80;;;4.40;99.90;;;;;;5093840;28;20296;-57
2021/12/02 02:43:21;;;;;;;4.50;2.10;;;4.40;99.90;;;;;;5093471;28;20246;-55
2021/12/02 02:45:46;;;;;;;4.37;2.20;;;4.20;99.90;;;;;;5093826;28;20204;-57
2021/12/02 02:48:12;;;;;;;4.10;2.17;;;4.20;99.90;;;;;;5075265;28;20211;-56
2021/12/02 02:50:38;;;;;;;5.23;2.40;;;4.20;99.90;;;;;;5093780;28;20190;-58
2021/12/02 02:53:11;;;;;;;5.30;2.43;;;4.10;99.90;;;;;;5058789;28;20214;-57
2021/12/02 02:55:38;;;;;;;5.33;2.37;;;4.10;99.90;;;;;;5093647;28;20224;-56
2021/12/02 02:58:15;;;;;;;8.37;2.57;;;4.00;99.90;;;;;;5092986;28;20682;-57
2021/12/02 03:00:55;;;;;;;5.83;2.23;;;4.00;99.90;;;;;;5092913;28;20634;-57
2021/12/02 03:03:36;;;;;;;5.63;1.97;;;4.00;99.90;;;;;;5093548;28;20189;-56
2021/12/02 03:08:41;;;;;;;10.73;2.60;;;4.00;99.90;;;;;;5093602;28;20182;-58
2021/12/02 03:11:10;;;;;;;5.57;2.60;;;3.90;99.90;;;;;;5092994;28;20329;-57
2021/12/02 03:13:53;;;;;;;6.33;2.30;;;3.80;99.90;;;;;;5092977;28;20224;-57
2021/12/02 03:19:04;;;;;;;11.83;3.67;;;3.80;99.90;;;;;;5093061;28;20220;-56
2021/12/02 03:21:30;;;;;;;6.67;3.10;;;3.80;99.90;;;;;;5093018;28;20598;-56
2021/12/02 03:23:59;;;;;;;8.37;3.70;;;3.80;99.90;;;;;;5092788;28;20264;-57
2021/12/02 03:26:25;;;;;;;7.17;3.90;;;3.70;99.90;;;;;;5074708;28;20193;-58
2021/12/02 03:28:52;;;;;;;8.20;4.00;;;3.70;99.90;;;;;;5092827;28;20246;-59
2021/12/02 03:31:18;;;;;;;5.90;3.13;;;3.60;99.90;;;;;;5092884;28;20227;-58
2021/12/02 03:33:44;;;;;;;10.43;3.50;;;3.50;99.90;;;;;;5092809;28;20262;-56
2021/12/02 03:36:12;;;;;;;5.73;3.23;;;3.50;99.90;;;;;;5092748;28;20289;-58
2021/12/02 03:38:38;;;;;;;6.47;3.23;;;3.40;99.90;;;;;;5092760;28;20640;-56
2021/12/02 03:41:04;;;;;;;10.23;4.00;;;3.40;99.90;;;;;;5092492;28;20185;-58
2021/12/02 03:43:38;;;;;;;13.03;3.57;;;3.40;99.90;;;;;;5092539;28;20273;-57
2021/12/02 03:46:04;;;;;;;10.53;3.50;;;3.40;99.90;;;;;;5074149;28;20177;-56
2021/12/02 03:48:30;;;;;;;10.87;3.40;;;3.40;99.90;;;;;;5092570;28;20192;-58
2021/12/02 03:50:56;;;;;;;10.70;3.30;;;3.40;99.90;;;;;;5091999;28;20525;-57
2021/12/02 03:53:22;;;;;;;8.60;3.20;;;3.40;99.90;;;;;;5092356;28;20242;-58
2021/12/02 03:55:48;;;;;;;9.23;3.37;;;3.40;99.90;;;;;;5074340;28;20264;-56
2021/12/02 03:58:13;;;;;;;4.87;2.60;;;3.40;99.90;;;;;;5092093;28;20176;-57
2021/12/02 04:00:40;;;;;;;4.73;2.67;;;3.50;99.90;;;;;;5092357;28;20188;-58
2021/12/02 04:03:05;;;;;;;5.83;2.80;;;3.50;99.90;;;;;;5092060;28;20188;-60
2021/12/02 04:05:31;;;;;;;3.77;2.43;;;3.60;99.90;;;;;;5092339;28;20184;-58
2021/12/02 04:07:57;;;;;;;6.87;3.57;;;3.60;99.90;;;;;;5091988;28;20222;-58
2021/12/02 04:10:24;;;;;;;11.60;3.73;;;3.50;99.90;;;;;;5091835;28;20267;-58
2021/12/02 04:13:07;;;;;;;5.80;3.20;;;3.50;99.90;;;;;;5091630;28;20274;-56
2021/12/02 04:15:45;;;;;;;9.67;4.07;;;3.50;99.90;;;;;;5091962;28;20266;-58
2021/12/02 04:18:11;;;;;;;10.33;3.67;;;3.50;99.90;;;;;;5091529;28;20206;-57
2021/12/02 04:20:37;;;;;;;6.17;2.93;;;3.60;99.90;;;;;;5091753;28;20178;-58
2021/12/02 04:23:03;;;;;;;9.50;3.67;;;3.60;99.90;;;;;;5091579;28;20212;-55
2021/12/02 04:25:29;;;;;;;7.93;3.57;;;3.50;99.90;;;;;;5057248;28;20280;-56
2021/12/02 04:27:55;;;;;;;12.53;4.10;;;3.50;99.90;;;;;;5073654;28;20278;-62
2021/12/02 04:30:25;;;;;;;13.13;4.43;;;3.40;99.90;;;;;;5091772;28;20704;-58
2021/12/02 04:32:52;;;;;;;7.50;3.63;;;3.30;99.90;;;;;;5092051;28;20167;-56
2021/12/02 04:35:18;;;;;;;11.97;4.00;;;3.30;99.90;;;;;;5091204;28;20200;-57
2021/12/02 04:37:45;;;;;;;7.20;3.20;;;3.30;99.90;;;;;;5091550;28;20230;-56
2021/12/02 04:40:15;;;;;;;6.17;2.77;;;3.30;99.90;;;;;;5091438;28;20189;-57
2021/12/02 04:42:42;;;;;;;5.77;3.20;;;3.50;99.90;;;;;;5091437;28;20184;-55
2021/12/02 04:45:08;;;;;;;9.37;3.43;;;3.60;99.90;;;;;;5091191;28;20691;-58
2021/12/02 04:47:34;;;;;;;6.77;3.50;;;3.70;99.90;;;;;;5091271;28;20260;-57
2021/12/02 04:50:00;;;;;;;6.93;3.90;;;3.70;99.90;;;;;;5090807;28;20275;-55
2021/12/02 04:52:26;;;;;;;9.17;3.80;;;3.70;99.90;;;;;;5091151;28;20280;-57
2021/12/02 04:54:52;;;;;;;8.47;3.93;;;3.60;99.90;;;;;;5091294;28;20243;-57
2021/12/02 04:57:18;;;;;;;14.43;5.30;;;3.50;99.90;;;;;;5090064;28;20464;-55
2021/12/02 04:59:44;;;;;;;14.47;4.97;;;3.40;99.90;;;;;;5090827;28;20650;-56
2021/12/02 05:02:10;;;;;;;8.00;3.73;;;3.40;99.90;;;;;;5089895;28;20181;-55
2021/12/02 05:04:35;;;;;;;6.07;3.37;;;3.30;99.90;;;;;;5091247;28;20193;-56
2021/12/02 05:07:01;;;;;;;7.60;3.83;;;3.30;99.90;;;;;;5072588;28;20193;-56
2021/12/02 05:09:27;;;;;;;7.30;3.63;;;3.30;99.90;;;;;;5072659;28;20219;-57
2021/12/02 05:11:52;;;;;;;7.80;4.80;;;3.40;99.90;;;;;;5090174;28;20252;-56
2021/12/02 05:14:18;;;;;;;8.73;3.90;;;3.40;99.90;;;;;;5072458;28;20276;-58
2021/12/02 05:16:44;;;;;;;16.33;5.60;;;3.40;99.90;;;;;;5071730;28;20516;-56
2021/12/02 05:19:10;;;;;;;8.43;4.37;;;3.30;99.90;;;;;;5090438;28;20181;-57
2021/12/02 05:21:36;;;;;;;8.73;3.90;;;3.40;99.90;;;;;;5090016;28;20609;-56
2021/12/02 05:24:02;;;;;;;8.97;3.57;;;3.40;99.90;;;;;;5093807;28;20184;-56
2021/12/02 05:26:28;;;;;;;6.93;3.37;;;3.40;99.90;;;;;;5076085;28;20181;-56
2021/12/02 05:28:54;;;;;;;8.17;3.23;;;3.40;99.90;;;;;;5094159;28;20181;-57
2021/12/02 05:31:21;;;;;;;5.20;3.33;;;3.40;99.90;;;;;;5075179;28;20207;-56
2021/12/02 05:33:48;;;;;;;15.93;4.60;;;3.40;99.90;;;;;;5093571;28;20204;-57
2021/12/02 05:36:13;;;;;;;7.77;4.50;;;3.40;99.90;;;;;;5093780;28;20190;-56
2021/12/02 05:38:40;;;;;;;7.57;3.70;;;3.40;99.90;;;;;;5076034;28;20188;-61
2021/12/02 05:41:06;;;;;;;4.47;2.93;;;3.50;99.90;;;;;;5093743;28;20230;-60
2021/12/02 05:43:33;;;;;;;10.40;5.17;;;3.50;99.90;;;;;;5094189;28;20695;-57
2021/12/02 05:45:59;;;;;;;16.27;6.87;;;3.40;99.90;;;;;;5093851;28;20173;-56
2021/12/02 05:48:25;;;;;;;14.87;5.77;;;3.40;99.90;;;;;;5093473;28;20215;-59
2021/12/02 05:50:51;;;;;;;17.87;6.87;;;3.50;99.90;;;;;;5087264;28;20595;-55
2021/12/02 05:53:18;;;;;;;36.57;12.80;;;3.40;99.90;;;;;;5081202;28;20641;-56
2021/12/02 05:55:44;;;;;;;12.30;5.50;;;3.40;99.90;;;;;;5073510;28;20189;-58
2021/12/02 05:58:14;;;;;;;21.03;6.60;;;3.30;99.90;;;;;;5072752;28;20836;-58
2021/12/02 06:00:41;;;;;;;8.83;4.90;;;3.40;99.90;;;;;;5067755;28;20180;-55
2021/12/02 06:03:07;;;;;;;10.53;4.90;;;3.60;99.90;;;;;;5092840;28;20185;-59
2021/12/02 06:05:33;;;;;;;16.37;7.13;;;3.70;99.90;;;;;;5093033;28;20185;-59
2021/12/02 06:08:00;;;;;;;13.97;5.27;;;3.70;99.90;;;;;;5075203;28;20188;-59
2021/12/02 06:10:27;;;;;;;19.27;6.93;;;3.70;99.90;;;;;;5092976;28;20181;-58
2021/12/02 06:12:53;;;;;;;22.00;8.60;;;3.70;99.90;;;;;;5092162;28;20232;-61
2021/12/02 06:15:19;;;;;;;10.43;5.00;;;3.80;99.90;;;;;;5092023;28;20318;-60
2021/12/02 06:17:45;;;;;;;22.50;6.20;;;3.80;99.90;;;;;;5092730;28;20184;-55
2021/12/02 06:20:14;;;;;;;20.00;5.97;;;3.80;99.90;;;;;;5092044;28;20595;-59
2021/12/02 06:22:41;;;;;;;16.40;4.30;;;3.80;99.90;;;;;;5090413;28;20181;-52
2021/12/02 06:28:05;;;;;;;12.27;4.43;;;3.90;99.90;;;;;;5091306;28;20506;-61
2021/12/02 06:30:32;;;;;;;8.53;3.40;;;4.00;99.90;;;;;;5086368;28;20199;-61
2021/12/02 06:32:57;;;;;;;10.60;4.67;;;4.10;99.90;;;;;;5072618;28;20188;-61
2021/12/02 06:35:23;;;;;;;12.10;4.03;;;4.10;99.90;;;;;;5071353;28;20195;-61
2021/12/02 06:37:50;;;;;;;14.83;6.23;;;4.10;99.90;;;;;;5091529;28;20585;-61
2021/12/02 06:40:16;;;;;;;10.77;4.23;;;4.10;99.90;;;;;;5090661;28;20176;-61
2021/12/02 06:42:42;;;;;;;8.57;3.97;;;4.10;99.90;;;;;;5090997;28;20181;-60
2021/12/02 06:45:09;;;;;;;12.80;5.50;;;4.20;99.90;;;;;;5090257;28;20602;-56
2021/12/02 06:47:39;;;;;;;15.67;4.67;;;4.30;99.90;;;;;;5090034;28;20198;-62
2021/12/02 06:50:08;;;;;;;6.33;3.87;;;4.40;99.90;;;;;;5071496;28;21008;-55
2021/12/02 06:52:34;;;;;;;10.10;3.97;;;4.60;99.90;;;;;;5070042;28;20654;-57
2021/12/02 06:55:00;;;;;;;13.60;4.50;;;4.70;99.90;;;;;;5087444;28;20213;-62
2021/12/02 06:57:26;;;;;;;10.90;5.30;;;4.70;99.90;;;;;;5090215;28;20185;-58
2021/12/02 06:59:52;;;;;;;11.53;4.80;;;4.70;99.90;;;;;;5071395;28;20909;-58
2021/12/02 07:02:20;;;;;;;9.70;4.83;;;4.80;99.90;;;;;;5071150;28;20186;-60
2021/12/02 07:04:48;;;;;;;11.27;4.53;;;4.70;99.90;;;;;;5071376;28;20206;-57
2021/12/02 07:07:14;;;;;;;8.10;4.10;;;4.60;99.90;;;;;;5089869;28;20196;-53
2021/12/02 07:09:41;;;;;;;14.27;4.97;;;4.50;99.90;;;;;;5078114;28;20197;-61
2021/12/02 07:12:07;;;;;;;19.77;4.70;;;4.60;99.90;;;;;;5059748;28;20241;-63
2021/12/02 07:14:33;;;;;;;10.70;4.57;;;4.60;99.90;;;;;;5069632;28;20218;-60
2021/12/02 07:16:59;;;;;;;13.73;5.03;;;4.60;99.90;;;;;;5067674;28;20653;-61
2021/12/02 07:19:25;;;;;;;13.23;4.43;;;4.60;99.90;;;;;;5049480;28;20186;-72
2021/12/02 07:21:51;;;;;;;10.03;5.00;;;4.50;99.90;;;;;;5056129;28;20568;-61
2021/12/02 07:24:17;;;;;;;11.67;5.07;;;4.60;99.90;;;;;;5057466;28;20469;-69
2021/12/02 07:26:46;;;;;;;13.50;5.40;;;4.80;99.90;;;;;;5060026;28;20181;-61
2021/12/02 07:29:15;;;;;;;17.87;7.10;;;5.10;99.90;;;;;;5060108;28;20180;-61
2021/12/02 07:31:42;;;;;;;18.43;6.10;;;5.20;99.90;;;;;;5060443;28;20250;-60
2021/12/02 07:34:09;;;;;;;15.17;5.17;;;5.20;99.90;;;;;;5061771;28;20797;-59
2021/12/02 07:36:36;;;;;;;20.50;6.73;;;5.20;99.90;;;;;;5068573;28;20280;-59
2021/12/02 07:39:05;;;;;;;17.93;6.17;;;5.20;99.90;;;;;;5069261;28;20181;-59
2021/12/02 07:41:31;;;;;;;25.77;8.77;;;5.20;99.90;;;;;;5069143;28;20180;-62
2021/12/02 07:43:57;;;;;;;29.87;11.27;;;5.10;99.90;;;;;;5069268;28;20723;-64
2021/12/02 07:46:24;;;;;;;27.60;11.60;;;5.10;99.90;;;;;;5064053;28;20175;-62
2021/12/02 07:48:50;;;;;;;41.80;13.33;;;5.20;99.90;;;;;;5067391;28;20472;-61
2021/12/02 07:51:17;;;;;;;44.07;15.80;;;5.20;99.90;;;;;;5066377;28;20181;-61
2021/12/02 07:53:47;;;;;;;44.37;15.53;;;5.20;99.90;;;;;;5066832;28;20211;-62
2021/12/02 07:56:16;;;;;;;35.17;14.40;;;5.20;99.90;;;;;;5066638;28;20232;-59
2021/12/02 07:58:47;;;;;;;38.23;13.53;;;5.30;99.90;;;;;;5066806;28;20603;-65
2021/12/02 08:01:14;;;;;;;34.33;12.90;;;5.20;99.90;;;;;;5068454;28;20194;-64
2021/12/02 08:03:44;;;;;;;30.73;12.90;;;5.20;99.90;;;;;;5067894;28;20546;-63
2021/12/02 08:06:16;;;;;;;18.43;9.67;;;5.20;99.90;;;;;;5067866;28;20533;-62
2021/12/02 08:08:44;;;;;;;24.30;10.50;;;5.30;99.90;;;;;;5069398;28;20282;-60
2021/12/02 08:11:11;;;;;;;24.57;11.30;;;5.30;99.90;;;;;;5072293;28;20235;-62
2021/12/02 08:13:37;;;;;;;27.43;11.57;;;5.30;99.90;;;;;;5088971;28;20199;-65
2021/12/02 08:16:05;;;;;;;33.60;15.93;;;5.30;99.90;;;;;;5076565;28;20194;-62
2021/12/02 08:18:33;;;;;;;34.70;15.23;;;5.20;99.90;;;;;;5087475;28;20216;-64
2021/12/02 08:20:59;;;;;;;44.13;18.40;;;5.30;99.90;;;;;;5086840;28;20182;-67
2021/12/02 08:23:26;;;;;;;57.60;24.23;;;5.30;99.90;;;;;;5087876;28;20192;-66
2021/12/02 08:25:53;;;;;;;62.00;23.77;;;5.30;99.90;;;;;;5087518;28;20661;-64
2021/12/02 08:28:20;;;;;;;43.67;19.00;;;5.30;99.90;;;;;;5087424;28;20179;-59
2021/12/02 08:30:45;;;;;;;43.10;17.50;;;5.30;99.90;;;;;;5087481;28;20179;-63
2021/12/02 08:33:13;;;;;;;39.07;17.07;;;5.40;99.90;;;;;;5069002;28;20683;-62
2021/12/02 08:35:40;;;;;;;44.47;17.43;;;5.50;99.90;;;;;;5088984;28;20187;-60
2021/12/02 08:38:11;;;;;;;52.87;18.00;;;5.60;99.90;;;;;;5088742;28;20275;-64
2021/12/02 08:40:39;;;;;;;38.07;16.90;;;5.70;99.90;;;;;;5088720;28;20272;-61
2021/12/02 08:43:08;;;;;;;27.10;12.73;;;5.80;99.90;;;;;;5086653;28;20179;-69
2021/12/02 08:45:35;;;;;;;24.07;10.77;;;5.90;99.90;;;;;;5088910;28;20175;-60
2021/12/02 08:48:02;;;;;;;22.13;9.70;;;6.00;99.90;;;;;;5089090;28;20549;-59
2021/12/02 08:50:29;;;;;;;26.27;11.17;;;6.20;99.90;;;;;;5088210;28;20549;-59
2021/12/02 08:52:55;;;;;;;20.83;8.77;;;6.30;99.90;;;;;;5088886;28;20204;-57
2021/12/02 08:55:23;;;;;;;20.73;8.87;;;6.40;99.90;;;;;;5088703;28;20470;-62
2021/12/02 08:57:51;;;;;;;21.80;8.10;;;6.60;99.90;;;;;;5090750;28;20597;-58
2021/12/02 09:00:20;;;;;;;13.13;5.90;;;6.70;99.90;;;;;;5092286;28;20195;-59
2021/12/02 09:02:46;;;;;;;17.10;6.00;;;6.90;99.90;;;;;;5093014;28;20236;-62
2021/12/02 09:05:13;;;;;;;13.80;5.57;;;7.20;99.90;;;;;;5091866;28;20188;-61
2021/12/02 09:07:39;;;;;;;17.63;6.30;;;7.50;99.90;;;;;;5092967;28;20182;-60
2021/12/02 09:10:06;;;;;;;13.80;6.00;;;7.70;99.90;;;;;;5092808;28;20253;-57
2021/12/02 09:12:33;;;;;;;13.47;4.93;;;8.00;99.90;;;;;;5073795;28;20233;-61
2021/12/02 09:14:58;;;;;;;15.97;5.40;;;8.20;99.90;;;;;;5074558;28;20580;-61
2021/12/02 09:17:24;;;;;;;16.23;5.53;;;8.30;99.90;;;;;;5085323;28;20190;-61
2021/12/02 09:19:51;;;;;;;14.03;4.43;;;8.50;99.90;;;;;;5074838;28;20265;-55
2021/12/02 09:22:17;;;;;;;10.53;4.57;;;8.60;99.90;;;;;;5093140;28;20296;-59
2021/12/02 09:24:43;;;;;;;12.97;4.57;;;8.70;99.90;;;;;;5089549;28;20204;-63
2021/12/02 09:27:09;;;;;;;17.17;4.53;;;8.80;99.90;;;;;;5087419;28;20538;-65
2021/12/02 09:29:35;;;;;;;20.20;5.47;;;8.90;99.90;;;;;;5084110;28;20196;-60
2021/12/02 09:32:01;;;;;;;32.00;6.30;;;9.00;99.90;;;;;;5093255;28;20267;-59
2021/12/02 09:34:27;;;;;;;11.83;4.80;;;9.20;99.90;;;;;;5093822;28;20247;-55
2021/12/02 09:36:53;;;;;;;17.37;5.07;;;9.50;99.90;;;;;;5094238;28;20822;-62
2021/12/02 09:39:19;;;;;;;19.57;5.27;;;9.70;99.90;;;;;;5073440;28;20196;-64
2021/12/02 09:41:46;;;;;;;13.47;4.90;;;9.90;99.90;;;;;;5091880;28;20174;-62
2021/12/02 09:44:13;;;;;;;14.23;4.67;;;10.20;99.90;;;;;;5091457;28;20189;-64
2021/12/02 09:46:40;;;;;;;8.13;3.90;;;10.40;99.90;;;;;;5091925;28;20590;-66
2021/12/02 09:49:09;;;;;;;8.20;4.03;;;10.60;99.90;;;;;;5091649;28;20207;-61
2021/12/02 09:52:19;;;;;;;7.00;2.70;;;10.70;99.90;;;;;;5091573;28;20189;-59
2021/12/02 09:54:29;;;;;;;7.20;2.33;;;10.80;99.90;;;;;;5084580;28;20223;-61
2021/12/02 09:56:58;;;;;;;8.73;2.40;;;10.80;99.90;;;;;;5073589;28;20240;-58
2021/12/02 10:00:06;;;;;;;8.10;2.80;;;10.90;99.90;;;;;;5093230;28;20191;-57
2021/12/02 10:02:16;;;;;;;7.53;3.13;;;11.00;99.90;;;;;;5083364;28;20543;-56
2021/12/02 10:05:03;;;;;;;16.73;5.40;;;11.00;99.50;;;;;;5093116;28;20600;-55
2021/12/02 10:10:11;;;;;;;7.47;2.20;;;11.00;99.20;;;;;;5092147;28;20191;-61
2021/12/02 10:12:48;;;;;;;7.40;2.47;;;10.90;99.20;;;;;;5093228;28;20247;-60
2021/12/02 10:15:16;;;;;;;7.33;2.70;;;10.90;99.00;;;;;;5093031;28;20224;-61
2021/12/02 10:17:49;;;;;;;6.20;2.13;;;10.90;99.00;;;;;;5092983;28;20730;-61
2021/12/02 10:23:34;;;;;;;5.57;1.90;;;11.10;99.10;;;;;;5093042;28;20511;-61
2021/12/02 10:26:03;;;;;;;7.13;2.47;;;11.20;98.90;;;;;;5092780;28;20244;-63
2021/12/02 10:28:34;;;;;;;13.03;3.17;;;11.30;98.90;;;;;;5072080;28;20216;-62
2021/12/02 10:31:04;;;;;;;6.60;2.43;;;11.30;98.70;;;;;;5072539;28;20192;-59
2021/12/02 10:33:42;;;;;;;10.20;1.80;;;11.50;98.70;;;;;;5071793;28;20694;-59
2021/12/02 10:36:29;;;;;;;7.73;3.07;;;11.40;98.30;;;;;;5072662;28;20173;-62
2021/12/02 10:38:59;;;;;;;7.97;2.60;;;11.40;98.30;;;;;;5071661;28;20192;-56
2021/12/02 10:41:28;;;;;;;8.43;2.03;;;11.50;98.10;;;;;;5072145;28;20339;-62
2021/12/02 10:44:04;;;;;;;5.43;1.90;;;11.40;98.10;;;;;;5072382;28;20197;-56
2021/12/02 10:46:30;;;;;;;5.50;2.40;;;11.40;98.10;;;;;;5054143;28;20208;-63
2021/12/02 10:48:56;;;;;;;6.20;2.00;;;11.30;98.20;;;;;;5054421;28;20197;-61
2021/12/02 10:51:46;;;;;;;6.13;2.50;;;11.40;97.90;;;;;;5071528;28;20521;-60
2021/12/02 10:54:22;;;;;;;15.40;3.17;;;11.50;97.90;;;;;;5071723;28;20220;-61
2021/12/02 10:56:54;;;;;;;5.93;1.90;;;11.60;97.70;;;;;;5079206;28;20192;-61
2021/12/02 10:59:39;;;;;;;3.33;1.77;;;11.60;97.70;;;;;;5091872;28;20180;-61
2021/12/02 11:02:18;;;;;;;7.47;2.23;;;11.50;97.80;;;;;;5091582;28;20329;-63
2021/12/02 11:04:48;;;;;;;7.23;2.20;;;11.60;97.90;;;;;;5091709;28;20625;-61
2021/12/02 11:07:24;;;;;;;8.40;3.37;;;11.60;97.40;;;;;;5091410;28;20221;-61
2021/12/02 11:09:52;;;;;;;5.43;2.20;;;11.60;97.50;;;;;;5091822;28;20199;-61
2021/12/02 11:12:24;;;;;;;7.00;3.07;;;11.60;97.50;;;;;;5090167;28;20235;-61
2021/12/02 11:14:54;;;;;;;2.50;1.50;;;11.60;97.50;;;;;;5091920;28;20215;-60
2021/12/02 11:17:21;;;;;;;8.47;2.37;;;11.70;97.00;;;;;;5091047;28;20203;-61
2021/12/02 11:19:49;;;;;;;4.57;2.27;;;11.80;97.10;;;;;;5091653;28;20258;-59
2021/12/02 11:22:18;;;;;;;9.53;2.57;;;11.80;96.80;;;;;;5073465;28;20178;-54
2021/12/02 11:24:45;;;;;;;3.87;2.30;;;11.90;97.00;;;;;;5091819;28;20180;-60
2021/12/02 11:27:17;;;;;;;4.47;2.30;;;11.90;97.00;;;;;;5090721;28;20589;-60
2021/12/02 11:30:08;;;;;;;13.60;4.57;;;11.80;96.90;;;;;;5091725;28;20180;-62
2021/12/02 11:32:34;;;;;;;4.80;2.13;;;11.90;96.90;;;;;;5072527;28;20176;-63
2021/12/02 11:35:12;;;;;;;5.63;1.90;;;11.80;96.80;;;;;;5091209;28;20212;-61
2021/12/02 11:37:41;;;;;;;8.37;2.33;;;11.80;96.60;;;;;;5089175;28;20172;-61
2021/12/02 11:40:10;;;;;;;12.63;3.43;;;11.90;96.60;;;;;;5090664;28;20660;-64
2021/12/02 11:42:38;;;;;;;6.87;2.77;;;11.90;96.70;;;;;;5090801;28;20189;-65
2021/12/02 11:45:05;;;;;;;6.97;2.77;;;11.80;96.60;;;;;;5090578;28;20192;-65
2021/12/02 11:47:31;;;;;;;10.23;4.30;;;11.80;97.00;;;;;;5090367;28;20242;-61
2021/12/02 11:49:57;;;;;;;11.67;4.13;;;11.80;97.30;;;;;;5073028;28;20180;-60
2021/12/02 11:52:23;;;;;;;10.00;3.40;;;11.90;97.40;;;;;;5090815;28;20541;-66
2021/12/02 11:54:49;;;;;;;8.83;3.50;;;11.90;97.00;;;;;;5090428;28;20266;-64
2021/12/02 11:57:15;;;;;;;12.50;3.60;;;12.00;97.10;;;;;;5090819;28;20235;-61
2021/12/02 11:59:41;;;;;;;17.97;5.63;;;11.90;97.20;;;;;;5090587;28;20177;-63
2021/12/02 12:02:07;;;;;;;12.30;5.10;;;11.80;97.30;;;;;;5090668;28;20554;-64
2021/12/02 12:04:38;;;;;;;14.17;3.77;;;11.90;97.50;;;;;;5090392;28;20196;-61
2021/12/02 12:07:14;;;;;;;6.20;2.70;;;12.00;97.40;;;;;;5091117;28;20540;-64
2021/12/02 12:09:40;;;;;;;13.20;4.27;;;12.10;97.20;;;;;;5090866;28;20189;-58
2021/12/02 12:12:07;;;;;;;12.03;4.57;;;12.10;97.20;;;;;;5090804;28;20485;-60
2021/12/02 12:14:40;;;;;;;8.77;3.10;;;12.10;97.30;;;;;;5090972;28;20531;-62
2021/12/02 12:17:13;;;;;;;11.87;3.07;;;12.10;97.00;;;;;;5090316;28;20181;-64
2021/12/02 12:19:45;;;;;;;6.87;2.73;;;12.40;96.70;;;;;;5072148;28;20184;-66
2021/12/02 12:22:33;;;;;;;7.03;2.30;;;12.50;96.40;;;;;;5090488;28;20215;-71
2021/12/02 12:25:03;;;;;;;10.13;3.60;;;12.50;96.40;;;;;;5090750;28;20375;-65
2021/12/02 12:27:32;;;;;;;13.30;5.30;;;12.40;96.60;;;;;;5090080;28;20191;-65
2021/12/02 12:30:01;;;;;;;14.40;5.10;;;12.20;97.10;;;;;;5090333;28;20979;-63
2021/12/02 12:32:45;;;;;;;8.40;4.93;;;12.00;97.10;;;;;;5089296;28;20185;-63
2021/12/02 12:38:22;;;;;;;16.03;6.70;;;11.60;97.70;;;;;;5090565;28;20226;-63
2021/12/02 12:40:51;;;;;;;13.33;5.57;;;11.60;97.90;;;;;;5090496;28;20675;-63
2021/12/02 12:43:21;;;;;;;6.87;3.23;;;11.60;98.10;;;;;;5071467;28;20238;-57
2021/12/02 12:45:47;;;;;;;11.70;3.40;;;11.60;98.50;;;;;;5090187;28;20181;-56
2021/12/02 12:48:26;;;;;;;6.27;3.07;;;11.60;98.30;;;;;;5090056;28;20181;-61
2021/12/02 12:50:52;;;;;;;8.23;3.43;;;11.50;98.60;;;;;;5090241;28;20351;-59
2021/12/02 12:53:39;;;;;;;4.33;2.10;;;11.60;98.70;;;;;;5071615;28;20181;-56
2021/12/02 12:56:08;;;;;;;8.93;3.30;;;11.60;98.60;;;;;;5089223;28;20253;-58
2021/12/02 12:58:55;;;;;;;11.53;4.20;;;11.40;98.90;;;;;;5071763;28;20184;-58
2021/12/02 13:01:22;;;;;;;19.93;4.63;;;11.40;99.10;;;;;;5089490;28;20192;-59
2021/12/02 13:04:13;;;;;;;12.80;4.73;;;11.40;99.30;;;;;;5071923;28;20181;-58
2021/12/02 13:07:01;;;;;;;8.60;3.70;;;11.40;99.20;;;;;;5072398;28;20176;-58
2021/12/02 13:10:11;;;;;;;8.90;3.50;;;11.40;99.30;;;;;;5089693;28;20314;-56
2021/12/02 13:12:36;;;;;;;4.87;3.10;;;11.40;99.40;;;;;;5089632;28;20238;-58
2021/12/02 13:15:04;;;;;;;12.13;4.13;;;11.30;99.50;;;;;;5089809;28;20213;-65
2021/12/02 13:17:47;;;;;;;11.20;4.63;;;11.30;99.60;;;;;;5089671;28;20188;-66
2021/12/02 13:20:32;;;;;;;6.43;3.40;;;11.30;99.90;;;;;;5071730;28;20521;-65